Time;durP1;ratioP1;P1;durP2;ratioP2;P2;SDS_P1;SDS_P2;PMS_P1;PMS_P2;Temp;Humidity;BMP_temperature;BMP_pressure;BME280_temperature;BME280_humidity;BME280_pressure;Samples;Min_cycle;Max_cycle;Signal;HPM_P1;HPM_P2
2022/05/29 00:02:09;;;;;;;6.27;5.87;;;8.30;99.90;;;;;;5063101;28;20303;-68
2022/05/29 00:04:36;;;;;;;6.10;5.73;;;8.30;99.90;;;;;;5073994;28;20166;-68
2022/05/29 00:07:04;;;;;;;6.50;6.10;;;8.30;99.90;;;;;;5064797;28;20187;-69
2022/05/29 00:09:38;;;;;;;7.27;6.97;;;8.30;99.90;;;;;;5053000;28;20248;-68
2022/05/29 00:12:05;;;;;;;8.90;8.40;;;8.20;99.90;;;;;;5061531;28;20231;-69
2022/05/29 00:14:32;;;;;;;10.03;9.13;;;8.20;99.90;;;;;;5072753;28;20269;-69
2022/05/29 00:16:58;;;;;;;8.60;8.00;;;8.20;99.90;;;;;;5067631;28;20185;-68
2022/05/29 00:19:24;;;;;;;8.80;8.20;;;8.20;99.90;;;;;;5052823;28;20179;-68
2022/05/29 00:21:51;;;;;;;8.23;7.83;;;8.10;99.90;;;;;;5056751;28;20702;-69
2022/05/29 00:24:17;;;;;;;12.40;7.97;;;8.10;99.90;;;;;;5073664;28;20183;-68
2022/05/29 00:26:43;;;;;;;7.77;7.17;;;8.10;99.90;;;;;;5070538;28;20183;-68
2022/05/29 00:29:08;;;;;;;7.17;6.77;;;8.10;99.90;;;;;;5053902;28;20187;-69
2022/05/29 00:31:35;;;;;;;7.37;6.70;;;8.00;99.90;;;;;;5053704;28;20195;-68
2022/05/29 00:34:01;;;;;;;7.33;6.87;;;8.00;99.90;;;;;;5073362;28;20182;-67
2022/05/29 00:36:32;;;;;;;7.27;6.80;;;8.00;99.90;;;;;;5073655;28;20174;-67
2022/05/29 00:38:58;;;;;;;8.37;6.77;;;7.90;99.90;;;;;;5032328;28;20218;-67
2022/05/29 00:41:30;;;;;;;7.13;6.63;;;7.90;99.90;;;;;;5048055;28;20191;-66
2022/05/29 00:44:14;;;;;;;6.57;6.17;;;7.90;99.90;;;;;;5051768;28;20554;-65
2022/05/29 00:46:44;;;;;;;8.30;7.10;;;7.80;99.90;;;;;;5053884;28;20178;-67
2022/05/29 00:49:11;;;;;;;8.27;7.57;;;7.80;99.90;;;;;;5053351;28;20681;-67
2022/05/29 00:51:48;;;;;;;7.57;6.90;;;7.80;99.90;;;;;;5069236;28;20753;-67
2022/05/29 00:54:15;;;;;;;7.93;7.40;;;7.80;99.90;;;;;;5072172;28;20641;-67
2022/05/29 00:56:41;;;;;;;8.10;7.40;;;7.80;99.90;;;;;;5055885;28;20662;-68
2022/05/29 00:59:17;;;;;;;7.67;7.07;;;7.80;99.90;;;;;;5053999;28;20203;-67
2022/05/29 01:01:44;;;;;;;7.57;7.07;;;7.90;99.90;;;;;;5064378;28;20204;-67
2022/05/29 01:04:11;;;;;;;8.33;7.87;;;7.90;99.90;;;;;;5053625;28;20182;-66
2022/05/29 01:06:37;;;;;;;8.53;7.70;;;7.90;99.90;;;;;;5085640;28;20321;-67
2022/05/29 01:09:05;;;;;;;7.60;7.10;;;7.90;99.90;;;;;;5053483;28;20174;-67
2022/05/29 01:11:55;;;;;;;7.63;7.23;;;8.00;99.90;;;;;;5065100;28;20206;-67
2022/05/29 01:14:46;;;;;;;7.40;6.90;;;7.90;99.90;;;;;;5072165;28;20178;-67
2022/05/29 01:17:43;;;;;;;7.53;7.17;;;8.00;99.90;;;;;;5056315;28;20190;-67
2022/05/29 01:20:15;;;;;;;7.73;7.33;;;8.00;99.90;;;;;;5051899;28;20301;-68
2022/05/29 01:22:41;;;;;;;7.50;7.07;;;8.00;99.90;;;;;;5031943;28;20249;-67
2022/05/29 01:25:32;;;;;;;6.70;6.40;;;8.00;99.90;;;;;;5032556;28;20250;-67
2022/05/29 01:28:37;;;;;;;6.57;6.20;;;8.00;99.90;;;;;;5040915;28;20171;-69
2022/05/29 01:31:31;;;;;;;6.63;6.17;;;8.00;99.90;;;;;;5057782;28;20197;-70
2022/05/29 01:34:17;;;;;;;7.07;6.60;;;8.00;99.90;;;;;;5072346;28;20170;-69
2022/05/29 01:37:10;;;;;;;6.50;6.03;;;7.90;99.90;;;;;;5060607;28;20219;-68
2022/05/29 01:39:45;;;;;;;6.23;5.63;;;7.90;99.90;;;;;;5049581;28;20190;-69
2022/05/29 01:42:17;;;;;;;6.50;6.17;;;7.90;99.90;;;;;;5054704;28;20236;-69
2022/05/29 01:44:42;;;;;;;7.17;6.47;;;7.80;99.90;;;;;;5051996;28;20174;-69
2022/05/29 01:47:21;;;;;;;6.67;6.10;;;7.80;99.90;;;;;;5064367;28;20174;-68
2022/05/29 01:49:50;;;;;;;7.10;6.50;;;7.80;99.90;;;;;;5072054;28;20593;-69
2022/05/29 01:52:42;;;;;;;6.27;5.90;;;7.70;99.90;;;;;;5058853;28;20178;-69
2022/05/29 01:55:11;;;;;;;6.73;6.37;;;7.70;99.90;;;;;;5051485;28;20179;-68
2022/05/29 01:57:42;;;;;;;6.93;6.33;;;7.70;99.90;;;;;;5030929;28;20219;-67
2022/05/29 02:00:17;;;;;;;7.27;6.87;;;7.60;99.90;;;;;;5032304;28;20183;-67
2022/05/29 02:02:49;;;;;;;6.53;6.13;;;7.60;99.90;;;;;;5072167;28;20177;-68
2022/05/29 02:05:20;;;;;;;6.10;5.80;;;7.50;99.90;;;;;;5070790;28;20198;-67
2022/05/29 02:07:52;;;;;;;6.93;6.53;;;7.50;99.90;;;;;;5032108;28;20523;-67
2022/05/29 02:10:37;;;;;;;7.53;6.87;;;7.40;99.90;;;;;;5032789;28;20236;-67
2022/05/29 02:13:10;;;;;;;7.40;6.80;;;7.40;99.90;;;;;;5070531;28;20228;-67
2022/05/29 02:15:58;;;;;;;7.60;6.90;;;7.30;99.90;;;;;;5069151;28;20239;-67
2022/05/29 02:18:34;;;;;;;6.60;6.30;;;7.30;99.90;;;;;;5044939;28;20221;-67
2022/05/29 02:21:11;;;;;;;6.60;6.20;;;7.30;99.90;;;;;;5071579;28;20209;-67
2022/05/29 02:23:44;;;;;;;6.87;6.43;;;7.30;99.90;;;;;;5057332;28;20175;-67
2022/05/29 02:26:16;;;;;;;6.37;5.97;;;7.20;99.90;;;;;;5051590;28;20254;-67
2022/05/29 02:28:46;;;;;;;6.50;6.00;;;7.20;99.90;;;;;;5065243;28;20214;-68
2022/05/29 02:31:36;;;;;;;6.77;6.27;;;7.20;99.90;;;;;;5071747;28;20194;-68
2022/05/29 02:34:09;;;;;;;7.23;6.83;;;7.20;99.90;;;;;;5054539;28;20222;-68
2022/05/29 02:37:09;;;;;;;7.33;6.80;;;7.20;99.90;;;;;;5051729;28;20171;-67
2022/05/29 02:39:44;;;;;;;7.63;7.13;;;7.20;99.90;;;;;;5071287;28;20236;-67
2022/05/29 02:42:16;;;;;;;8.27;7.77;;;7.30;99.90;;;;;;5052197;28;20177;-67
2022/05/29 02:44:47;;;;;;;9.10;7.13;;;7.30;99.90;;;;;;5051184;28;20194;-68
2022/05/29 02:47:57;;;;;;;6.43;6.13;;;7.40;99.90;;;;;;5069984;28;20185;-67
2022/05/29 02:50:25;;;;;;;7.10;6.77;;;7.50;99.90;;;;;;5066972;28;20194;-67
2022/05/29 02:52:52;;;;;;;6.97;6.53;;;7.60;99.90;;;;;;5051354;28;20167;-67
2022/05/29 02:55:20;;;;;;;6.23;5.93;;;7.60;99.90;;;;;;5052428;28;20580;-68
2022/05/29 02:57:48;;;;;;;10.03;6.30;;;7.70;99.90;;;;;;5071313;28;20273;-68
2022/05/29 03:00:15;;;;;;;6.87;6.40;;;7.80;99.90;;;;;;5069547;28;20194;-67
2022/05/29 03:02:50;;;;;;;7.27;6.67;;;7.90;99.90;;;;;;5070230;28;20200;-67
2022/05/29 03:05:39;;;;;;;7.33;6.73;;;8.00;99.90;;;;;;5070992;28;20636;-67
2022/05/29 03:08:30;;;;;;;7.13;6.50;;;8.00;99.90;;;;;;5054774;28;20469;-68
2022/05/29 03:11:14;;;;;;;7.57;6.77;;;8.10;99.90;;;;;;5060571;28;20194;-67
2022/05/29 03:14:03;;;;;;;6.67;6.30;;;8.10;99.90;;;;;;5073901;28;20268;-67
2022/05/29 03:16:57;;;;;;;7.13;6.63;;;8.10;99.90;;;;;;5064380;28;20613;-68
2022/05/29 03:19:41;;;;;;;7.43;6.77;;;8.10;99.90;;;;;;5055307;28;20210;-67
2022/05/29 03:22:25;;;;;;;8.00;7.20;;;8.20;99.90;;;;;;5070303;28;20667;-67
2022/05/29 03:25:12;;;;;;;7.23;6.80;;;8.20;99.90;;;;;;5074860;28;20253;-68
2022/05/29 03:27:44;;;;;;;7.03;6.53;;;8.30;99.90;;;;;;5035245;28;20714;-67
2022/05/29 03:30:14;;;;;;;6.40;6.00;;;8.30;99.90;;;;;;5035029;28;20195;-67
2022/05/29 03:32:40;;;;;;;7.83;7.33;;;8.30;99.90;;;;;;5035063;28;20251;-68
2022/05/29 03:35:23;;;;;;;7.23;6.53;;;8.30;99.90;;;;;;5033509;28;20179;-67
2022/05/29 03:37:49;;;;;;;7.27;6.50;;;8.40;99.90;;;;;;5034915;28;20196;-67
2022/05/29 03:40:15;;;;;;;7.80;7.30;;;8.40;99.90;;;;;;5033499;28;20381;-66
2022/05/29 03:42:41;;;;;;;10.03;7.17;;;8.40;99.90;;;;;;5073241;28;20261;-67
2022/05/29 03:45:08;;;;;;;7.10;6.70;;;8.40;99.90;;;;;;5074558;28;20220;-66
2022/05/29 03:47:35;;;;;;;8.83;6.60;;;8.40;99.90;;;;;;5055404;28;20187;-67
2022/05/29 03:50:00;;;;;;;7.20;6.60;;;8.50;99.90;;;;;;5054444;28;20195;-66
2022/05/29 03:52:26;;;;;;;6.93;6.50;;;8.60;99.90;;;;;;5070150;28;20680;-68
2022/05/29 03:54:52;;;;;;;7.10;6.60;;;8.60;99.90;;;;;;5073774;28;20255;-67
2022/05/29 03:57:18;;;;;;;6.80;6.40;;;8.60;99.90;;;;;;5060166;28;20186;-67
2022/05/29 03:59:43;;;;;;;7.17;6.77;;;8.60;99.90;;;;;;5054434;28;20195;-67
2022/05/29 04:02:09;;;;;;;7.67;7.07;;;8.70;99.90;;;;;;5052976;28;20179;-67
2022/05/29 04:04:35;;;;;;;7.03;6.50;;;8.70;99.90;;;;;;5054533;28;20179;-67
2022/05/29 04:07:00;;;;;;;7.97;7.23;;;8.60;99.90;;;;;;5069866;28;20174;-67
2022/05/29 04:12:13;;;;;;;10.03;7.33;;;8.70;99.90;;;;;;5057419;28;20284;-67
2022/05/29 04:14:41;;;;;;;6.80;6.40;;;8.70;99.90;;;;;;5054442;28;20193;-67
2022/05/29 04:17:09;;;;;;;6.40;6.00;;;8.70;99.90;;;;;;5067316;28;20537;-68
2022/05/29 04:19:34;;;;;;;6.73;6.33;;;8.90;99.90;;;;;;5074063;28;20554;-67
2022/05/29 04:22:05;;;;;;;8.17;7.07;;;9.00;99.90;;;;;;5060217;28;20186;-66
2022/05/29 04:24:30;;;;;;;7.37;6.87;;;9.10;99.90;;;;;;5053755;28;20199;-66
2022/05/29 04:26:56;;;;;;;6.93;6.20;;;9.30;99.90;;;;;;5065978;28;20604;-67
2022/05/29 04:29:21;;;;;;;6.10;5.70;;;9.30;99.90;;;;;;5073885;28;20170;-66
2022/05/29 04:34:31;;;;;;;6.90;6.40;;;9.60;99.90;;;;;;5053549;28;20228;-67
2022/05/29 04:36:57;;;;;;;6.60;6.10;;;9.70;99.90;;;;;;5064128;28;20186;-67
2022/05/29 04:39:26;;;;;;;6.97;6.37;;;9.70;99.90;;;;;;5073590;28;20681;-67
2022/05/29 04:41:51;;;;;;;8.13;6.20;;;9.70;99.90;;;;;;5055429;28;20175;-67
2022/05/29 04:44:17;;;;;;;6.97;6.30;;;9.70;99.90;;;;;;5052959;28;20178;-67
2022/05/29 04:46:43;;;;;;;6.50;6.20;;;9.80;99.90;;;;;;5068935;28;20170;-67
2022/05/29 04:49:09;;;;;;;6.87;6.40;;;9.80;99.90;;;;;;5073574;28;20249;-67
2022/05/29 04:51:34;;;;;;;7.57;6.83;;;9.90;99.90;;;;;;5059015;28;20211;-67
2022/05/29 04:54:00;;;;;;;7.53;6.80;;;9.90;99.90;;;;;;5051751;28;20298;-67
2022/05/29 04:56:26;;;;;;;6.90;6.40;;;10.00;99.90;;;;;;5063652;28;20186;-67
2022/05/29 04:58:51;;;;;;;6.67;6.17;;;10.00;99.90;;;;;;5071776;28;20212;-67
2022/05/29 05:01:17;;;;;;;7.30;6.77;;;10.10;99.90;;;;;;5066129;28;20241;-67
2022/05/29 05:03:42;;;;;;;11.10;6.57;;;10.10;99.90;;;;;;5038768;28;20262;-66
2022/05/29 05:06:09;;;;;;;7.10;6.20;;;10.20;99.90;;;;;;5033111;28;20164;-66
2022/05/29 05:08:35;;;;;;;8.50;6.93;;;10.30;99.90;;;;;;5031968;28;20674;-67
2022/05/29 05:11:01;;;;;;;7.07;6.47;;;10.40;99.90;;;;;;5045449;28;20209;-67
2022/05/29 05:13:27;;;;;;;6.37;5.87;;;10.50;99.90;;;;;;5072683;28;20515;-68
2022/05/29 05:16:04;;;;;;;6.60;6.20;;;10.60;99.90;;;;;;5066688;28;20247;-67
2022/05/29 05:18:30;;;;;;;6.70;6.20;;;10.60;99.90;;;;;;5051524;28;20256;-67
2022/05/29 05:20:56;;;;;;;6.20;5.70;;;10.80;99.90;;;;;;5051405;28;20595;-67
2022/05/29 05:23:21;;;;;;;6.50;6.00;;;11.10;99.90;;;;;;5052643;28;20171;-67
2022/05/29 05:25:47;;;;;;;6.17;5.73;;;11.20;99.90;;;;;;5054427;28;20163;-68
2022/05/29 05:28:13;;;;;;;7.20;6.43;;;11.20;99.90;;;;;;5070400;28;20174;-66
2022/05/29 05:30:39;;;;;;;6.47;5.97;;;11.30;99.90;;;;;;5071794;28;20243;-66
2022/05/29 05:33:04;;;;;;;6.10;5.60;;;11.30;99.90;;;;;;5071648;28;20252;-66
2022/05/29 05:35:30;;;;;;;6.83;5.50;;;11.30;99.90;;;;;;5072395;28;20170;-65
2022/05/29 05:37:56;;;;;;;5.60;5.30;;;11.30;99.90;;;;;;5053357;28;20737;-66
2022/05/29 05:40:22;;;;;;;6.40;5.90;;;11.30;99.90;;;;;;5050965;28;20202;-67
2022/05/29 05:42:48;;;;;;;6.80;6.20;;;11.30;99.90;;;;;;5053226;28;20183;-67
2022/05/29 05:45:14;;;;;;;6.47;5.90;;;11.30;99.90;;;;;;5052130;28;20221;-68
2022/05/29 05:47:39;;;;;;;6.47;5.90;;;11.20;99.90;;;;;;5067086;28;20186;-66
2022/05/29 05:50:06;;;;;;;7.57;5.93;;;11.10;99.90;;;;;;5066152;28;20211;-66
2022/05/29 05:52:32;;;;;;;6.43;5.87;;;11.20;99.90;;;;;;5060892;28;20650;-67
2022/05/29 05:54:58;;;;;;;6.63;6.13;;;11.30;99.90;;;;;;5055365;28;20189;-67
2022/05/29 05:57:23;;;;;;;7.17;6.60;;;11.40;99.90;;;;;;5052655;28;20182;-66
2022/05/29 05:59:49;;;;;;;6.40;6.00;;;11.50;99.90;;;;;;5056998;28;20565;-66
2022/05/29 06:02:15;;;;;;;6.90;6.30;;;11.50;99.90;;;;;;5056603;28;20728;-66
2022/05/29 06:04:42;;;;;;;7.23;6.17;;;11.60;99.90;;;;;;5068451;28;20174;-67
2022/05/29 06:07:09;;;;;;;6.20;5.80;;;11.60;99.90;;;;;;5054041;28;20650;-66
2022/05/29 06:09:36;;;;;;;6.10;5.80;;;11.60;99.90;;;;;;5054471;28;20225;-67
2022/05/29 06:12:03;;;;;;;6.30;5.80;;;11.80;99.90;;;;;;5052506;28;20275;-67
2022/05/29 06:14:29;;;;;;;6.60;5.97;;;11.90;99.90;;;;;;5062424;28;20218;-67
2022/05/29 06:16:57;;;;;;;6.60;6.00;;;11.90;99.90;;;;;;5051546;28;20178;-67
2022/05/29 06:19:23;;;;;;;6.10;5.70;;;11.90;99.90;;;;;;5064863;28;20573;-67
2022/05/29 06:21:48;;;;;;;6.70;6.23;;;11.90;99.90;;;;;;5056938;28;20210;-66
2022/05/29 06:24:14;;;;;;;6.10;5.67;;;12.10;99.90;;;;;;5062062;28;20178;-67
2022/05/29 06:26:39;;;;;;;7.03;6.50;;;12.30;99.90;;;;;;5071225;28;20228;-67
2022/05/29 06:29:05;;;;;;;6.57;6.00;;;12.50;99.90;;;;;;5051360;28;20288;-66
2022/05/29 06:31:31;;;;;;;6.07;5.73;;;12.50;99.90;;;;;;5052373;28;20199;-66
2022/05/29 06:33:56;;;;;;;5.83;5.43;;;12.70;99.90;;;;;;5059000;28;20197;-66
2022/05/29 06:36:24;;;;;;;5.80;5.23;;;12.80;99.90;;;;;;5067728;28;20183;-66
2022/05/29 06:38:52;;;;;;;6.90;5.93;;;12.80;99.90;;;;;;5050393;28;20194;-67
2022/05/29 06:41:21;;;;;;;6.33;5.83;;;13.00;99.90;;;;;;5058419;28;20197;-66
2022/05/29 06:43:50;;;;;;;5.33;5.03;;;13.20;99.90;;;;;;5058334;28;20272;-67
2022/05/29 06:46:16;;;;;;;5.70;5.40;;;13.30;99.90;;;;;;5067223;28;20227;-67
2022/05/29 06:48:42;;;;;;;5.80;5.40;;;13.10;99.90;;;;;;5040849;28;20182;-66
2022/05/29 06:51:21;;;;;;;5.73;5.30;;;13.20;99.90;;;;;;5063956;28;20200;-66
2022/05/29 06:53:52;;;;;;;5.53;5.17;;;13.30;99.90;;;;;;5039421;28;20178;-66
2022/05/29 06:56:19;;;;;;;5.73;5.40;;;13.60;99.90;;;;;;5051186;28;20174;-67
2022/05/29 06:58:46;;;;;;;5.87;5.17;;;13.50;99.90;;;;;;5080043;28;20210;-66
2022/05/29 07:06:59;;;;;;;6.20;5.80;;;13.60;99.90;;;;;;5031935;28;20190;-66
2022/05/29 07:09:30;;;;;;;6.20;5.90;;;13.80;99.90;;;;;;5039170;28;20247;-66
2022/05/29 07:12:07;;;;;;;6.10;5.70;;;13.70;99.90;;;;;;5050945;28;20182;-66
2022/05/29 07:14:38;;;;;;;6.53;5.97;;;13.60;99.90;;;;;;5035615;28;20182;-66
2022/05/29 07:17:04;;;;;;;7.27;6.70;;;13.60;99.90;;;;;;5059339;28;20641;-67
2022/05/29 07:19:30;;;;;;;5.63;5.20;;;13.80;99.90;;;;;;5061750;28;20199;-66
2022/05/29 07:21:57;;;;;;;6.20;5.57;;;14.00;99.90;;;;;;5056463;28;20185;-66
2022/05/29 07:24:25;;;;;;;6.10;5.60;;;14.00;99.90;;;;;;5069215;28;20182;-66
2022/05/29 07:26:50;;;;;;;5.97;5.47;;;13.70;99.90;;;;;;5064927;28;20404;-66
2022/05/29 07:29:17;;;;;;;6.13;5.83;;;13.60;99.90;;;;;;5051900;28;20179;-66
2022/05/29 07:31:43;;;;;;;6.90;6.40;;;13.50;99.90;;;;;;5052297;28;20202;-67
2022/05/29 07:34:09;;;;;;;6.47;5.80;;;13.30;99.90;;;;;;5060906;28;20236;-67
2022/05/29 07:36:35;;;;;;;6.33;5.80;;;13.10;99.90;;;;;;5061689;28;20239;-66
2022/05/29 07:39:00;;;;;;;6.40;6.00;;;12.90;99.90;;;;;;5054086;28;20249;-66
2022/05/29 07:44:11;;;;;;;5.60;5.23;;;12.60;99.90;;;;;;5065650;28;20241;-66
2022/05/29 07:46:36;;;;;;;5.80;5.40;;;12.30;99.90;;;;;;5049976;28;20261;-66
2022/05/29 07:49:02;;;;;;;5.50;5.17;;;12.30;99.90;;;;;;5056372;28;20665;-66
2022/05/29 07:51:28;;;;;;;5.60;5.30;;;12.40;99.90;;;;;;5070262;28;20205;-66
2022/05/29 07:53:53;;;;;;;7.00;6.10;;;12.20;99.90;;;;;;5071170;28;20213;-66
2022/05/29 07:56:19;;;;;;;7.07;6.37;;;12.10;99.90;;;;;;5067838;28;20273;-67
2022/05/29 07:58:45;;;;;;;6.33;5.90;;;12.20;99.90;;;;;;5067605;28;20263;-66
2022/05/29 08:01:11;;;;;;;6.40;5.90;;;12.50;99.90;;;;;;5055605;28;20674;-66
2022/05/29 08:03:38;;;;;;;5.50;5.20;;;12.70;99.90;;;;;;5058180;28;20181;-66
2022/05/29 08:06:04;;;;;;;6.30;5.87;;;12.80;99.90;;;;;;5074382;28;20213;-67
2022/05/29 08:08:31;;;;;;;6.50;6.10;;;13.10;99.90;;;;;;5054565;28;20552;-66
2022/05/29 08:10:57;;;;;;;6.03;5.73;;;13.10;99.90;;;;;;5053215;28;20298;-68
2022/05/29 08:13:24;;;;;;;6.57;6.07;;;13.10;99.90;;;;;;5072357;28;20619;-67
2022/05/29 08:15:50;;;;;;;6.20;5.80;;;13.00;99.90;;;;;;5057612;28;20190;-67
2022/05/29 08:18:15;;;;;;;7.13;6.10;;;13.30;99.90;;;;;;5062250;28;20275;-67
2022/05/29 08:20:41;;;;;;;6.13;5.73;;;13.40;99.90;;;;;;5054186;28;20285;-67
2022/05/29 08:23:07;;;;;;;5.83;5.53;;;13.70;99.90;;;;;;5052883;28;20198;-68
2022/05/29 08:31:02;;;;;;;5.07;4.77;;;14.70;99.90;;;;;;5060965;28;20218;-68
2022/05/29 08:33:30;;;;;;;4.87;4.67;;;15.30;99.90;;;;;;5068719;28;20247;-67
2022/05/29 08:36:08;;;;;;;4.60;4.10;;;15.60;99.90;;;;;;5061868;28;20433;-67
2022/05/29 08:38:39;;;;;;;4.50;4.30;;;15.80;99.90;;;;;;5052293;28;20207;-67
2022/05/29 08:41:09;;;;;;;4.67;4.43;;;15.90;99.90;;;;;;5065333;28;20201;-66
2022/05/29 08:43:39;;;;;;;6.77;5.53;;;15.70;99.90;;;;;;5072510;28;20182;-66
2022/05/29 08:46:12;;;;;;;6.40;5.90;;;15.20;99.90;;;;;;5068689;28;20185;-69
2022/05/29 08:48:37;;;;;;;5.00;4.70;;;14.70;99.90;;;;;;5070983;28;20186;-68
2022/05/29 08:51:27;;;;;;;5.00;4.70;;;14.90;99.90;;;;;;5068624;28;20209;-68
2022/05/29 08:54:10;;;;;;;5.70;5.30;;;15.40;99.90;;;;;;5029999;28;20292;-67
2022/05/29 08:56:42;;;;;;;5.03;4.73;;;15.80;99.90;;;;;;5065338;28;20182;-67
2022/05/29 08:59:14;;;;;;;4.60;4.30;;;16.00;99.90;;;;;;5063062;28;20210;-67
2022/05/29 09:02:00;;;;;;;4.50;4.20;;;16.60;99.90;;;;;;5057018;28;20199;-67
2022/05/29 09:04:33;;;;;;;3.90;3.60;;;17.60;99.90;;;;;;5049832;28;20213;-68
2022/05/29 09:07:02;;;;;;;3.40;3.20;;;18.80;99.90;;;;;;5031921;28;20548;-67
2022/05/29 09:09:46;;;;;;;3.30;3.10;;;20.10;99.90;;;;;;5043412;28;20179;-67
2022/05/29 09:12:44;;;;;;;3.07;2.87;;;20.50;99.90;;;;;;5053159;28;20520;-67
2022/05/29 09:15:21;;;;;;;3.53;3.22;;;21.00;99.90;;;;;;5069699;28;20190;-67
2022/05/29 09:17:52;;;;;;;5.80;3.05;;;22.00;99.90;;;;;;5072672;28;20240;-67
2022/05/29 09:20:37;;;;;;;3.00;2.80;;;23.00;99.90;;;;;;5055158;28;20233;-67
2022/05/29 09:23:06;;;;;;;3.63;3.42;;;23.10;99.90;;;;;;5052360;28;20178;-67
2022/05/29 09:25:43;;;;;;;3.60;3.30;;;22.50;99.90;;;;;;5066457;28;20651;-68
2022/05/29 09:28:18;;;;;;;3.85;3.55;;;21.50;99.90;;;;;;5054529;28;20342;-67
2022/05/29 09:30:45;;;;;;;3.80;3.50;;;20.70;99.90;;;;;;5072588;28;20214;-67
2022/05/29 09:33:22;;;;;;;4.53;4.10;;;19.70;99.90;;;;;;5069323;28;20240;-67
2022/05/29 09:36:03;;;;;;;4.10;3.90;;;18.40;99.90;;;;;;5071171;28;20721;-68
2022/05/29 09:38:50;;;;;;;4.10;3.90;;;17.20;99.90;;;;;;5058648;28;20260;-67
2022/05/29 09:41:25;;;;;;;4.20;4.00;;;16.40;99.90;;;;;;5053476;28;20273;-67
2022/05/29 09:44:18;;;;;;;5.10;4.80;;;15.80;99.90;;;;;;5071276;28;20181;-68
2022/05/29 09:46:47;;;;;;;4.57;4.27;;;15.00;99.90;;;;;;5028749;28;20693;-66
2022/05/29 09:49:41;;;;;;;4.73;4.40;;;14.30;99.90;;;;;;5054975;28;20224;-68
2022/05/29 09:52:14;;;;;;;4.43;4.23;;;13.80;99.90;;;;;;5053448;28;20178;-68
2022/05/29 09:54:45;;;;;;;5.10;4.80;;;13.10;99.90;;;;;;5054518;28;20201;-68
2022/05/29 09:57:23;;;;;;;5.73;5.23;;;12.90;99.90;;;;;;5070364;28;20178;-68
2022/05/29 09:59:54;;;;;;;4.93;4.67;;;12.70;99.90;;;;;;5053976;28;20210;-68
2022/05/29 10:02:28;;;;;;;5.30;5.00;;;12.50;99.90;;;;;;5050877;28;20175;-68
2022/05/29 10:05:00;;;;;;;6.03;5.40;;;12.60;99.90;;;;;;5067475;28;20236;-68
2022/05/29 10:07:53;;;;;;;5.50;5.00;;;12.30;99.90;;;;;;5071958;28;20197;-68
2022/05/29 10:10:25;;;;;;;5.13;4.83;;;12.20;99.90;;;;;;5066628;28;20652;-68
2022/05/29 10:12:53;;;;;;;4.80;4.60;;;12.40;99.90;;;;;;5060787;28;20190;-68
2022/05/29 10:15:25;;;;;;;4.87;4.67;;;12.60;99.90;;;;;;5049616;28;20213;-68
2022/05/29 10:17:53;;;;;;;4.60;4.40;;;13.00;99.90;;;;;;5055803;28;20201;-68
2022/05/29 10:20:37;;;;;;;4.60;4.40;;;13.50;99.90;;;;;;5068690;28;20225;-68
2022/05/29 10:23:31;;;;;;;5.50;5.13;;;13.80;99.90;;;;;;5059462;28;20229;-68
2022/05/29 10:26:03;;;;;;;4.73;4.53;;;14.10;99.90;;;;;;5054356;28;20191;-68
2022/05/29 10:28:37;;;;;;;5.00;4.60;;;14.50;99.90;;;;;;5064483;28;20210;-68
2022/05/29 10:31:05;;;;;;;5.10;4.70;;;14.90;99.90;;;;;;5058639;28;20202;-68
2022/05/29 10:33:34;;;;;;;5.73;4.43;;;15.40;99.90;;;;;;5057800;28;20555;-68
2022/05/29 10:36:19;;;;;;;4.53;4.20;;;16.50;99.90;;;;;;5062192;28;20185;-68
2022/05/29 10:38:46;;;;;;;3.80;3.60;;;18.10;99.90;;;;;;5051423;28;20214;-68
2022/05/29 10:41:12;;;;;;;3.80;3.60;;;18.60;99.90;;;;;;5059567;28;20708;-68
2022/05/29 10:43:54;;;;;;;4.37;4.10;;;18.50;99.90;;;;;;5069811;28;20188;-68
2022/05/29 10:46:22;;;;;;;5.13;4.10;;;18.40;99.90;;;;;;5061256;28;20660;-67
2022/05/29 10:49:27;;;;;;;4.50;4.20;;;17.90;99.90;;;;;;5051026;28;20171;-67
2022/05/29 10:52:23;;;;;;;4.73;4.43;;;17.40;99.90;;;;;;5063015;28;20186;-67
2022/05/29 10:55:10;;;;;;;4.93;4.63;;;16.70;99.90;;;;;;5070880;28;20548;-68
2022/05/29 10:57:43;;;;;;;4.67;4.47;;;16.90;99.90;;;;;;5049952;28;20258;-67
2022/05/29 11:00:42;;;;;;;4.90;4.50;;;17.10;99.90;;;;;;5060670;28;20258;-67
2022/05/29 11:03:35;;;;;;;4.30;4.00;;;17.30;99.90;;;;;;5070015;28;20171;-67
2022/05/29 11:06:22;;;;;;;4.50;4.10;;;17.60;99.90;;;;;;5052587;28;20210;-67
2022/05/29 11:09:07;;;;;;;4.10;3.80;;;17.70;99.90;;;;;;5049716;28;20228;-67
2022/05/29 11:12:01;;;;;;;3.63;3.43;;;18.10;99.90;;;;;;5029980;28;20211;-67
2022/05/29 11:14:32;;;;;;;3.03;2.93;;;19.20;99.90;;;;;;5036132;28;20190;-67
2022/05/29 11:17:16;;;;;;;3.40;3.20;;;20.30;99.90;;;;;;5069661;28;20185;-68
2022/05/29 11:20:00;;;;;;;2.95;2.85;;;21.80;99.90;;;;;;5066162;28;20293;-67
2022/05/29 11:22:48;;;;;;;3.20;3.10;;;22.40;99.90;;;;;;5049435;28;20175;-68
2022/05/29 11:25:34;;;;;;;3.30;3.20;;;21.50;99.90;;;;;;5058975;28;20178;-67
2022/05/29 11:28:17;;;;;;;4.00;3.60;;;19.90;99.90;;;;;;5074880;28;20170;-67
2022/05/29 11:30:52;;;;;;;3.60;3.40;;;19.10;99.90;;;;;;5065743;28;20206;-67
2022/05/29 11:33:29;;;;;;;3.47;3.33;;;19.00;99.90;;;;;;5074684;28;20177;-67
2022/05/29 11:36:23;;;;;;;4.17;3.87;;;19.10;99.90;;;;;;5060246;28;20662;-67
2022/05/29 11:38:55;;;;;;;4.17;3.97;;;19.20;99.90;;;;;;5053106;28;20638;-67
2022/05/29 11:41:39;;;;;;;4.00;3.80;;;18.80;99.90;;;;;;5069862;28;20272;-67
2022/05/29 11:44:13;;;;;;;4.60;4.20;;;18.30;99.90;;;;;;5074315;28;20189;-67
2022/05/29 11:52:36;;;;;;;4.43;4.23;;;16.90;99.90;;;;;;5054574;28;20568;-68
2022/05/29 11:55:08;;;;;;;4.87;4.67;;;16.20;99.90;;;;;;5055294;28;20182;-68
2022/05/29 11:57:46;;;;;;;4.60;4.40;;;15.40;99.90;;;;;;5066146;28;20268;-68
2022/05/29 12:00:31;;;;;;;4.67;4.30;;;14.80;99.90;;;;;;5066775;28;20190;-68
2022/05/29 12:03:11;;;;;;;4.60;4.40;;;14.30;99.90;;;;;;5053840;28;20183;-67
2022/05/29 12:06:03;;;;;;;5.27;4.93;;;14.00;99.90;;;;;;5058947;28;20264;-68
2022/05/29 12:08:45;;;;;;;5.53;5.23;;;14.20;99.90;;;;;;5072657;28;20288;-67
2022/05/29 12:11:45;;;;;;;5.63;5.33;;;14.60;99.90;;;;;;5062938;28;20294;-67
2022/05/29 12:14:15;;;;;;;6.07;5.67;;;14.70;99.90;;;;;;5042503;28;20191;-68
2022/05/29 12:16:44;;;;;;;5.27;4.87;;;15.20;99.90;;;;;;5068322;28;20174;-68
2022/05/29 12:19:23;;;;;;;5.03;4.67;;;16.20;99.90;;;;;;5074026;28;20203;-69
2022/05/29 12:22:04;;;;;;;4.73;4.40;;;16.60;99.90;;;;;;5058403;28;20216;-68
2022/05/29 12:24:34;;;;;;;4.23;3.93;;;17.20;99.90;;;;;;5053762;28;20174;-69
2022/05/29 12:27:12;;;;;;;4.60;4.40;;;18.20;99.90;;;;;;5069660;28;20188;-68
2022/05/29 12:29:37;;;;;;;4.90;4.60;;;18.90;99.90;;;;;;5073145;28;20170;-68
2022/05/29 12:32:11;;;;;;;5.23;4.77;;;19.40;99.90;;;;;;5057841;28;20194;-68
2022/05/29 12:34:46;;;;;;;3.33;3.20;;;19.90;99.90;;;;;;5054136;28;20189;-67
2022/05/29 12:37:31;;;;;;;3.10;3.00;;;20.30;99.90;;;;;;5070120;28;20272;-67
2022/05/29 12:40:15;;;;;;;3.60;3.40;;;19.90;99.90;;;;;;5065642;28;20528;-68
2022/05/29 12:43:06;;;;;;;4.10;3.80;;;19.40;99.90;;;;;;5053621;28;20170;-68
2022/05/29 12:46:13;;;;;;;3.70;3.50;;;19.10;99.90;;;;;;5064495;28;20197;-69
2022/05/29 12:48:51;;;;;;;3.80;3.60;;;18.90;99.90;;;;;;5073517;28;20692;-67
2022/05/29 12:51:26;;;;;;;3.90;3.60;;;18.30;99.90;;;;;;5055949;28;20281;-67
2022/05/29 12:54:10;;;;;;;5.07;4.77;;;17.50;99.90;;;;;;5051501;28;20185;-67
2022/05/29 12:56:52;;;;;;;4.40;4.20;;;16.70;99.90;;;;;;5070658;28;20178;-68
2022/05/29 12:59:55;;;;;;;3.93;3.73;;;16.10;99.90;;;;;;5072622;28;20194;-66
2022/05/29 13:02:45;;;;;;;4.47;4.27;;;15.70;99.90;;;;;;5052674;28;20223;-67
2022/05/29 13:05:23;;;;;;;4.10;3.90;;;15.40;99.90;;;;;;5053132;28;20179;-67
2022/05/29 13:08:08;;;;;;;4.10;3.90;;;15.20;99.90;;;;;;5060733;28;20638;-67
2022/05/29 13:10:41;;;;;;;4.20;4.00;;;15.60;99.90;;;;;;5051583;28;20639;-66
2022/05/29 13:13:13;;;;;;;5.10;4.90;;;15.90;99.90;;;;;;5052640;28;20646;-67
2022/05/29 13:15:41;;;;;;;4.17;3.97;;;16.60;99.90;;;;;;5064884;28;20583;-67
2022/05/29 13:21:20;;;;;;;3.63;3.43;;;18.10;99.90;;;;;;5026647;28;20227;-67
2022/05/29 13:23:47;;;;;;;3.60;3.40;;;18.80;99.90;;;;;;5051028;28;20170;-68
2022/05/29 13:26:24;;;;;;;3.60;3.50;;;19.10;99.90;;;;;;5068996;28;20576;-67
2022/05/29 13:29:19;;;;;;;3.50;3.30;;;19.10;99.90;;;;;;5072522;28;20178;-67
2022/05/29 13:32:13;;;;;;;3.80;3.60;;;19.00;99.90;;;;;;5037140;28;20236;-67
2022/05/29 13:34:41;;;;;;;3.37;3.17;;;19.30;99.90;;;;;;5052934;28;20179;-67
2022/05/29 13:37:39;;;;;;;3.60;3.40;;;19.40;99.90;;;;;;5072363;28;20257;-67
2022/05/29 13:40:08;;;;;;;4.00;3.80;;;19.30;99.90;;;;;;5060233;28;20766;-66
2022/05/29 13:42:41;;;;;;;3.90;3.80;;;19.30;99.90;;;;;;5051988;28;20262;-66
2022/05/29 13:45:19;;;;;;;3.73;3.53;;;19.30;99.90;;;;;;5050404;28;20173;-66
2022/05/29 13:48:01;;;;;;;3.63;3.53;;;19.10;99.90;;;;;;5050422;28;20186;-67
2022/05/29 13:51:03;;;;;;;3.80;3.50;;;18.80;99.90;;;;;;5057790;28;20559;-66
2022/05/29 13:53:50;;;;;;;3.40;3.30;;;18.40;99.90;;;;;;5071870;28;20256;-67